createdAt,value
2022-08-04T00:01:33.432Z,21.76
2022-08-04T00:04:13.065Z,21.79
2022-08-04T00:07:04.776Z,21.51
2022-08-04T00:09:48.666Z,21.28
2022-08-04T00:12:17.365Z,21.31
2022-08-04T00:14:50.686Z,21.54
2022-08-04T00:17:21.608Z,21.23
2022-08-04T00:19:53.561Z,21.23
2022-08-04T00:22:25.973Z,21.38
2022-08-04T00:24:54.034Z,21.47
2022-08-04T00:27:21.327Z,21.25
2022-08-04T00:29:48.798Z,21.15
2022-08-04T00:32:34.597Z,20.74
2022-08-04T00:35:02.178Z,21.10
2022-08-04T00:37:29.269Z,21.22
2022-08-04T00:39:57.303Z,21.44
2022-08-04T00:42:34.679Z,21.63
2022-08-04T00:45:04.467Z,21.54
2022-08-04T00:47:52.045Z,21.69
2022-08-04T00:50:44.673Z,21.61
2022-08-04T00:53:28.707Z,21.65
2022-08-04T00:56:20.916Z,21.46
2022-08-04T00:58:53.820Z,21.60
2022-08-04T01:02:02.035Z,21.34
2022-08-04T01:05:04.000Z,21.35
2022-08-04T01:07:31.092Z,20.53
2022-08-04T01:10:00.863Z,19.97
2022-08-04T01:12:52.290Z,20.01
2022-08-04T01:15:59.377Z,20.54
2022-08-04T01:18:48.749Z,20.85
2022-08-04T01:21:31.155Z,20.94
2022-08-04T01:24:31.290Z,20.76
2022-08-04T01:27:04.328Z,20.91
2022-08-04T01:29:47.349Z,20.75
2022-08-04T01:32:48.060Z,20.55
2022-08-04T01:35:46.607Z,20.78
2022-08-04T01:38:21.767Z,20.53
2022-08-04T01:40:53.782Z,20.43
2022-08-04T01:43:21.580Z,20.73
2022-08-04T01:45:57.885Z,20.83
2022-08-04T01:48:26.694Z,20.77
2022-08-04T01:50:57.703Z,20.75
2022-08-04T01:53:31.357Z,20.65
2022-08-04T01:55:58.883Z,20.74
2022-08-04T01:58:30.087Z,20.47
2022-08-04T02:01:08.325Z,20.24
2022-08-04T02:04:21.027Z,20.29
2022-08-04T02:06:32.462Z,20.21
2022-08-04T02:09:17.950Z,20.38
2022-08-04T02:12:16.195Z,20.53
2022-08-04T02:14:56.468Z,20.62
2022-08-04T02:17:30.307Z,20.77
2022-08-04T02:20:16.303Z,20.95
2022-08-04T02:22:58.678Z,20.94
2022-08-04T02:25:27.999Z,20.74
2022-08-04T02:28:15.291Z,20.80
2022-08-04T02:31:15.777Z,20.70
2022-08-04T02:33:47.111Z,20.76
2022-08-04T02:36:39.693Z,20.94
2022-08-04T02:39:09.107Z,20.73
2022-08-04T02:41:37.110Z,20.68
2022-08-04T02:44:09.469Z,20.66
2022-08-04T02:46:39.295Z,20.42
2022-08-04T02:49:10.599Z,20.41
2022-08-04T02:51:41.586Z,20.51
2022-08-04T02:54:09.798Z,20.66
2022-08-04T02:56:39.684Z,20.68
2022-08-04T02:59:12.156Z,20.67
2022-08-04T03:01:56.656Z,20.77
2022-08-04T03:04:35.582Z,21.01
2022-08-04T03:07:29.518Z,20.81
2022-08-04T03:10:06.657Z,20.79
2022-08-04T03:12:58.894Z,20.48
2022-08-04T03:15:59.929Z,20.40
2022-08-04T03:19:04.053Z,20.79
2022-08-04T03:21:33.509Z,21.01
2022-08-04T03:24:10.341Z,21.01
2022-08-04T03:27:01.575Z,21.11
2022-08-04T03:30:05.747Z,21.32
2022-08-04T03:32:47.970Z,21.54
2022-08-04T03:35:53.875Z,21.92
2022-08-04T03:38:57.605Z,22.46
2022-08-04T03:42:03.159Z,22.39
2022-08-04T03:44:52.519Z,22.40
2022-08-04T03:47:42.193Z,22.33
2022-08-04T03:50:32.970Z,22.55
2022-08-04T03:53:20.938Z,22.89
2022-08-04T03:56:09.463Z,23.11
2022-08-04T03:58:51.702Z,23.20
2022-08-04T04:01:57.845Z,23.48
2022-08-04T04:04:41.894Z,23.61
2022-08-04T04:07:36.339Z,23.56
2022-08-04T04:10:22.665Z,23.29
2022-08-04T04:13:09.712Z,23.50
2022-08-04T04:16:04.337Z,22.77
2022-08-04T04:18:50.670Z,22.38
2022-08-04T04:21:52.855Z,22.63
2022-08-04T04:25:04.478Z,23.39
2022-08-04T04:27:42.894Z,23.86
2022-08-04T04:30:28.120Z,24.04
2022-08-04T04:32:55.072Z,24.15
2022-08-04T04:35:59.711Z,24.09
2022-08-04T04:39:09.324Z,24.49
2022-08-04T04:41:56.761Z,24.54
2022-08-04T04:45:00.966Z,24.69
2022-08-04T04:48:10.605Z,24.84
2022-08-04T04:51:06.821Z,25.14
2022-08-04T04:53:41.555Z,25.38
2022-08-04T04:56:23.224Z,25.58
2022-08-04T04:58:53.033Z,25.84
2022-08-04T05:01:34.652Z,25.31
2022-08-04T05:04:16.896Z,25.18
2022-08-04T05:07:26.815Z,25.45
2022-08-04T05:10:34.244Z,25.42
2022-08-04T05:14:32.252Z,25.34
2022-08-04T05:16:00.356Z,25.49
2022-08-04T05:18:30.937Z,25.72
2022-08-04T05:21:19.777Z,25.55
2022-08-04T05:23:54.964Z,25.21
2022-08-04T05:26:30.115Z,25.89
2022-08-04T05:29:00.065Z,26.32
2022-08-04T05:31:34.851Z,26.31
2022-08-04T05:34:11.364Z,25.99
2022-08-04T05:36:44.252Z,25.91
2022-08-04T05:39:15.991Z,25.85
2022-08-04T05:41:48.106Z,26.18
2022-08-04T05:44:23.993Z,26.36
2022-08-04T05:46:55.253Z,26.82
2022-08-04T05:49:28.616Z,26.95
2022-08-04T05:52:01.142Z,26.52
2022-08-04T05:54:29.483Z,26.64
2022-08-04T05:56:57.354Z,26.94
2022-08-04T05:59:26.854Z,26.77
2022-08-04T06:01:57.642Z,27.33
2022-08-04T06:04:32.381Z,27.18
2022-08-04T06:06:59.554Z,27.47
2022-08-04T06:09:27.042Z,27.83
2022-08-04T06:12:03.325Z,27.77
2022-08-04T06:14:40.569Z,28.15
2022-08-04T06:18:32.355Z,27.72
2022-08-04T06:20:19.003Z,28.39
2022-08-04T06:22:48.020Z,28.11
2022-08-04T06:25:20.589Z,28.18
2022-08-04T06:27:49.868Z,28.60
2022-08-04T06:30:19.386Z,28.10
2022-08-04T06:32:49.764Z,28.53
2022-08-04T06:35:18.496Z,28.83
2022-08-04T06:37:49.004Z,28.95
2022-08-04T06:40:31.839Z,28.93
2022-08-04T06:43:02.438Z,29.36
2022-08-04T06:45:30.326Z,29.27
2022-08-04T06:47:58.574Z,28.99
2022-08-04T06:51:29.518Z,29.23
2022-08-04T06:53:14.279Z,29.66
2022-08-04T06:55:43.758Z,29.55
2022-08-04T06:58:11.489Z,29.71
2022-08-04T07:00:40.827Z,29.79
2022-08-04T07:03:08.128Z,30.02
2022-08-04T07:05:36.443Z,29.63
2022-08-04T07:08:04.800Z,29.61
2022-08-04T07:10:32.045Z,29.70
2022-08-04T07:13:01.656Z,30.17
2022-08-04T07:15:29.518Z,30.28
2022-08-04T07:18:02.069Z,30.81
2022-08-04T07:20:34.518Z,30.20
2022-08-04T07:23:06.631Z,30.50
2022-08-04T07:25:59.492Z,31.42
2022-08-04T07:28:27.143Z,30.36
2022-08-04T07:30:55.802Z,29.94
2022-08-04T07:33:23.386Z,30.88
2022-08-04T07:36:05.199Z,30.89
2022-08-04T07:38:48.729Z,30.62
2022-08-04T07:41:36.034Z,30.18
2022-08-04T07:44:04.352Z,30.14
2022-08-04T07:46:31.835Z,30.91
2022-08-04T07:49:00.683Z,31.70
2022-08-04T07:51:29.229Z,32.12
2022-08-04T07:53:57.419Z,31.71
2022-08-04T07:56:28.719Z,31.57
2022-08-04T07:58:56.252Z,31.84
2022-08-04T08:01:24.808Z,31.71
2022-08-04T08:03:55.149Z,32.62
2022-08-04T08:06:30.836Z,33.17
2022-08-04T08:09:12.184Z,32.54
2022-08-04T08:12:38.043Z,32.87
2022-08-04T08:14:35.890Z,32.94
2022-08-04T08:17:04.462Z,33.51
2022-08-04T08:19:33.026Z,33.37
2022-08-04T08:22:01.782Z,33.28
2022-08-04T08:24:35.555Z,33.85
2022-08-04T08:27:07.189Z,33.74
2022-08-04T08:29:35.739Z,32.46
2022-08-04T08:32:08.847Z,31.79
2022-08-04T08:34:37.882Z,31.54
2022-08-04T08:37:13.351Z,31.76
2022-08-04T08:39:54.440Z,32.94
2022-08-04T08:42:42.307Z,33.59
2022-08-04T08:45:46.141Z,34.15
2022-08-04T08:48:33.525Z,32.88
2022-08-04T08:51:31.770Z,31.61
2022-08-04T08:54:30.161Z,32.23
2022-08-04T08:57:09.062Z,32.57
2022-08-04T09:00:31.596Z,32.00
2022-08-04T09:03:17.508Z,32.34
2022-08-04T09:05:54.771Z,32.91
2022-08-04T09:08:58.482Z,32.79
2022-08-04T09:11:33.122Z,31.93
2022-08-04T09:14:16.315Z,31.76
2022-08-04T09:16:52.238Z,31.91
2022-08-04T09:19:39.075Z,32.58
2022-08-04T09:22:16.509Z,33.64
2022-08-04T09:25:13.907Z,34.58
2022-08-04T09:27:55.445Z,35.17
2022-08-04T09:30:32.894Z,35.47
2022-08-04T09:33:45.601Z,34.75
2022-08-04T09:37:00.360Z,33.88
2022-08-04T09:39:41.143Z,34.22
2022-08-04T09:42:29.258Z,34.79
2022-08-04T09:45:06.524Z,33.70
2022-08-04T09:47:59.135Z,33.51
2022-08-04T09:50:41.105Z,32.73
2022-08-04T09:53:20.500Z,33.42
2022-08-04T09:55:54.837Z,33.25
2022-08-04T09:58:51.694Z,33.88
2022-08-04T10:01:23.905Z,34.34
2022-08-04T10:04:01.774Z,34.84
2022-08-04T10:06:42.358Z,36.11
2022-08-04T10:09:18.439Z,36.15
2022-08-04T10:12:23.629Z,34.48
2022-08-04T10:15:11.224Z,33.79
2022-08-04T10:17:52.539Z,33.04
2022-08-04T10:20:35.961Z,33.09
2022-08-04T10:23:18.331Z,34.46
2022-08-04T10:26:14.921Z,34.04
2022-08-04T10:28:51.887Z,35.12
2022-08-04T10:31:33.538Z,35.44
2022-08-04T10:34:12.345Z,35.87
2022-08-04T10:36:56.952Z,35.18
2022-08-04T10:39:43.703Z,36.44
2022-08-04T10:42:29.751Z,35.56
2022-08-04T10:45:18.162Z,34.78
2022-08-04T10:48:14.128Z,33.72
2022-08-04T10:50:55.405Z,33.80
2022-08-04T10:53:27.044Z,34.50
2022-08-04T10:56:07.288Z,34.48
2022-08-04T10:58:47.366Z,32.59
2022-08-04T11:02:01.051Z,33.60
2022-08-04T11:04:44.931Z,31.30
2022-08-04T11:07:12.949Z,31.09
2022-08-04T11:09:42.968Z,30.30
2022-08-04T11:12:29.590Z,29.87
2022-08-04T11:15:02.598Z,28.89
2022-08-04T11:18:16.962Z,28.38
2022-08-04T11:21:20.150Z,27.47
2022-08-04T11:24:04.469Z,27.29
2022-08-04T11:27:12.484Z,27.37
2022-08-04T11:30:07.362Z,27.50
2022-08-04T11:33:13.148Z,27.66
2022-08-04T11:36:04.850Z,27.29
2022-08-04T11:39:04.871Z,26.98
2022-08-04T11:41:49.617Z,27.74
2022-08-04T11:45:23.963Z,28.38
2022-08-04T11:48:06.947Z,28.59
2022-08-04T11:50:54.108Z,28.32
2022-08-04T11:53:25.728Z,28.51
2022-08-04T11:56:06.970Z,28.28
2022-08-04T11:58:38.382Z,28.20
2022-08-04T12:01:14.597Z,28.22
2022-08-04T12:04:01.193Z,27.81
2022-08-04T12:07:31.329Z,28.07
2022-08-04T12:10:40.843Z,28.47
2022-08-04T12:13:32.756Z,28.86
2022-08-04T12:16:44.798Z,28.57
2022-08-04T12:20:03.354Z,28.66
2022-08-04T12:22:36.091Z,28.54
2022-08-04T12:25:35.152Z,28.53
2022-08-04T12:28:22.302Z,29.34
2022-08-04T12:31:01.385Z,29.88
2022-08-04T12:34:04.384Z,29.55
2022-08-04T12:36:48.034Z,30.04
2022-08-04T12:39:23.589Z,28.99
2022-08-04T12:41:54.151Z,29.37
2022-08-04T12:44:36.592Z,29.06
2022-08-04T12:47:26.894Z,27.77
2022-08-04T12:50:08.422Z,27.29
2022-08-04T12:53:34.535Z,27.21
2022-08-04T12:56:26.766Z,27.10
2022-08-04T12:59:01.128Z,26.83
2022-08-04T13:02:06.097Z,27.07
2022-08-04T13:04:29.541Z,27.55
2022-08-04T13:07:15.743Z,26.91
2022-08-04T13:09:43.591Z,27.32
2022-08-04T13:12:32.630Z,27.25
2022-08-04T13:15:17.719Z,27.53
2022-08-04T13:17:51.998Z,27.76
2022-08-04T13:20:29.947Z,27.80
2022-08-04T13:23:03.989Z,28.17
2022-08-04T13:26:42.631Z,27.86
2022-08-04T13:28:24.841Z,27.76
2022-08-04T13:31:01.212Z,27.41
2022-08-04T13:33:38.476Z,27.69
2022-08-04T13:36:08.402Z,27.46
2022-08-04T13:38:38.691Z,27.57
2022-08-04T13:41:08.074Z,27.48
2022-08-04T13:44:19.695Z,27.37
2022-08-04T13:46:50.864Z,27.57
2022-08-04T13:49:43.135Z,27.44
2022-08-04T13:52:10.610Z,27.39
2022-08-04T13:54:47.239Z,27.83
2022-08-04T14:00:42.976Z,27.24
2022-08-04T14:03:53.372Z,27.26
2022-08-04T14:06:29.005Z,27.48
2022-08-04T14:09:02.236Z,27.97
2022-08-04T14:12:09.922Z,28.30
2022-08-04T14:14:33.858Z,27.34
2022-08-04T14:17:20.403Z,27.48
2022-08-04T14:20:01.937Z,27.85
2022-08-04T14:22:29.062Z,27.43
2022-08-04T14:25:16.283Z,27.58
2022-08-04T14:27:56.097Z,27.30
2022-08-04T14:30:37.698Z,27.12
2022-08-04T14:34:00.924Z,27.19
2022-08-04T14:36:04.009Z,27.35
2022-08-04T14:38:51.899Z,27.06
2022-08-04T14:41:29.011Z,27.30
2022-08-04T14:44:03.732Z,27.10
2022-08-04T14:46:36.366Z,27.25
2022-08-04T14:49:10.152Z,26.99
2022-08-04T14:51:45.516Z,26.96
2022-08-04T14:54:18.508Z,26.72
2022-08-04T14:56:55.119Z,26.89
2022-08-04T14:59:22.705Z,26.96
2022-08-04T15:02:00.473Z,26.95
2022-08-04T15:04:30.091Z,27.01
2022-08-04T15:06:57.429Z,26.88
2022-08-04T15:09:24.788Z,26.67
2022-08-04T15:11:51.878Z,26.78
2022-08-04T15:14:37.317Z,26.58
2022-08-04T15:17:11.974Z,26.54
2022-08-04T15:19:40.639Z,26.52
2022-08-04T15:22:23.303Z,26.22
2022-08-04T15:24:55.125Z,26.64
2022-08-04T15:27:27.514Z,26.15
2022-08-04T15:30:02.068Z,26.46
2022-08-04T15:32:35.126Z,26.54
2022-08-04T15:35:13.531Z,26.48
2022-08-04T15:37:52.566Z,26.42
2022-08-04T15:40:33.024Z,26.11
2022-08-04T15:43:55.523Z,26.30
2022-08-04T15:46:46.912Z,26.06
2022-08-04T15:49:24.853Z,26.03
2022-08-04T15:52:12.547Z,25.96
2022-08-04T15:54:42.562Z,25.75
2022-08-04T15:58:00.235Z,25.81
2022-08-04T16:00:28.055Z,25.87
2022-08-04T16:02:56.053Z,25.81
2022-08-04T16:05:23.532Z,25.98
2022-08-04T16:08:08.331Z,26.17
2022-08-04T16:10:40.449Z,25.99
2022-08-04T16:13:16.423Z,25.79
2022-08-04T16:16:03.345Z,25.91
2022-08-04T16:18:30.642Z,25.76
2022-08-04T16:21:02.536Z,25.79
2022-08-04T16:24:14.175Z,25.82
2022-08-04T16:26:46.334Z,25.69
2022-08-04T16:29:24.005Z,25.74
2022-08-04T16:32:06.205Z,25.57
2022-08-04T16:34:56.447Z,25.50
2022-08-04T16:37:30.228Z,25.49
2022-08-04T16:40:37.576Z,25.37
2022-08-04T16:43:13.678Z,25.45
2022-08-04T16:46:15.854Z,25.30
2022-08-04T16:49:06.374Z,25.34
2022-08-04T16:51:33.526Z,25.28
2022-08-04T16:54:05.522Z,25.21
2022-08-04T16:56:35.209Z,25.07
2022-08-04T16:59:09.953Z,25.08
2022-08-04T17:01:47.895Z,25.08
2022-08-04T17:04:15.927Z,25.17
2022-08-04T17:06:46.499Z,25.15
2022-08-04T17:09:18.377Z,25.06
2022-08-04T17:11:46.976Z,25.11
2022-08-04T17:14:14.174Z,25.36
2022-08-04T17:16:43.202Z,25.45
2022-08-04T17:19:24.452Z,25.21
2022-08-04T17:22:02.842Z,25.07
2022-08-04T17:24:38.302Z,24.93
2022-08-04T17:28:19.406Z,24.97
2022-08-04T17:29:53.619Z,24.98
2022-08-04T17:32:22.771Z,24.96
2022-08-04T17:34:52.276Z,25.09
2022-08-04T17:37:38.308Z,24.94
2022-08-04T17:40:32.798Z,24.86
2022-08-04T17:44:01.594Z,24.99
2022-08-04T17:46:35.903Z,24.98
2022-08-04T17:49:12.374Z,25.03
2022-08-04T17:52:04.874Z,25.09
2022-08-04T17:54:43.609Z,25.08
2022-08-04T17:57:22.301Z,25.08
2022-08-04T17:59:58.849Z,24.97
2022-08-04T18:02:32.483Z,24.95
2022-08-04T18:05:11.711Z,25.17
2022-08-04T18:08:34.793Z,25.44
2022-08-04T18:10:55.537Z,25.51
2022-08-04T18:13:26.234Z,25.21
2022-08-04T18:16:04.569Z,25.39
2022-08-04T18:18:40.191Z,25.50
2022-08-04T18:21:16.235Z,25.68
2022-08-04T18:23:50.990Z,25.64
2022-08-04T18:26:23.743Z,25.28
2022-08-04T18:28:51.588Z,25.33
2022-08-04T18:31:18.726Z,25.59
2022-08-04T18:33:59.034Z,25.68
2022-08-04T18:36:36.982Z,25.77
2022-08-04T18:39:13.284Z,25.85
2022-08-04T18:42:02.214Z,25.80
2022-08-04T18:44:32.662Z,25.70
2022-08-04T18:47:23.508Z,25.77
2022-08-04T18:51:00.231Z,25.43
2022-08-04T18:52:42.167Z,25.51
2022-08-04T18:55:55.305Z,25.30
2022-08-04T18:58:07.261Z,25.57
2022-08-04T19:00:38.923Z,25.45
2022-08-04T19:03:16.447Z,24.96
2022-08-04T19:05:49.301Z,25.45
2022-08-04T19:08:35.022Z,25.71
2022-08-04T19:11:28.736Z,25.85
2022-08-04T19:13:58.060Z,25.41
2022-08-04T19:16:30.386Z,25.10
2022-08-04T19:18:58.652Z,25.15
2022-08-04T19:22:00.317Z,25.38
2022-08-04T19:24:32.692Z,25.18
2022-08-04T19:27:06.486Z,25.23
2022-08-04T19:29:40.821Z,25.37
2022-08-04T19:32:15.054Z,25.49
2022-08-04T19:34:47.455Z,25.46
2022-08-04T19:37:56.661Z,25.29
2022-08-04T19:40:09.582Z,25.12
2022-08-04T19:42:38.018Z,25.06
2022-08-04T19:45:06.443Z,25.17
2022-08-04T19:48:21.577Z,25.09
2022-08-04T19:50:23.642Z,25.10
2022-08-04T19:52:52.722Z,25.26
2022-08-04T19:55:22.203Z,25.18
2022-08-04T19:57:53.322Z,25.29
2022-08-04T20:00:34.152Z,25.10
2022-08-04T20:03:11.526Z,25.05
2022-08-04T20:05:54.927Z,25.11
2022-08-04T20:08:24.448Z,25.06
2022-08-04T20:10:54.659Z,25.04
2022-08-04T20:13:22.301Z,24.90
2022-08-04T20:15:57.561Z,24.86
2022-08-04T20:18:35.770Z,25.13
2022-08-04T20:21:19.557Z,25.22
2022-08-04T20:23:52.624Z,25.09
2022-08-04T20:26:20.535Z,25.15
2022-08-04T20:28:52.573Z,25.05
2022-08-04T20:31:23.039Z,24.78
2022-08-04T20:33:58.719Z,24.79
2022-08-04T20:36:26.315Z,24.87
2022-08-04T20:38:54.653Z,24.76
2022-08-04T20:41:22.341Z,24.78
2022-08-04T20:43:49.679Z,24.86
2022-08-04T20:49:07.051Z,24.70
2022-08-04T20:51:39.770Z,24.82
2022-08-04T20:54:16.093Z,24.95
2022-08-04T20:56:50.884Z,24.68
2022-08-04T20:59:19.469Z,24.66
2022-08-04T21:01:49.585Z,24.59
2022-08-04T21:04:48.717Z,24.59
2022-08-04T21:07:16.697Z,24.65
2022-08-04T21:09:50.944Z,24.60
2022-08-04T21:12:29.095Z,24.49
2022-08-04T21:15:13.443Z,24.22
2022-08-04T21:17:58.456Z,24.32
2022-08-04T21:20:33.635Z,24.23
2022-08-04T21:23:05.063Z,24.22
2022-08-04T21:25:32.561Z,24.25
2022-08-04T21:28:10.505Z,24.10
2022-08-04T21:30:54.576Z,24.37
2022-08-04T21:33:49.913Z,24.34
2022-08-04T21:36:43.902Z,24.19
2022-08-04T21:42:38.068Z,24.29
2022-08-04T21:45:09.927Z,24.23
2022-08-04T21:47:46.624Z,23.70
2022-08-04T21:50:20.085Z,23.38
2022-08-04T21:52:49.118Z,23.30
2022-08-04T21:55:16.872Z,23.12
2022-08-04T21:57:46.071Z,23.05
2022-08-04T22:00:18.376Z,23.19
2022-08-04T22:03:03.866Z,23.37
2022-08-04T22:05:32.802Z,23.60
2022-08-04T22:08:00.047Z,23.50
2022-08-04T22:10:32.338Z,23.60
2022-08-04T22:13:06.930Z,23.25
2022-08-04T22:16:04.550Z,22.61
2022-08-04T22:18:24.552Z,22.57
2022-08-04T22:20:55.005Z,22.40
2022-08-04T22:23:24.367Z,22.45
2022-08-04T22:25:55.779Z,22.87
2022-08-04T22:28:28.134Z,22.89
2022-08-04T22:30:57.044Z,22.79
2022-08-04T22:33:23.992Z,22.63
2022-08-04T22:36:13.263Z,22.50
2022-08-04T22:38:48.563Z,22.57
2022-08-04T22:41:22.009Z,22.47
2022-08-04T22:44:01.012Z,22.50
2022-08-04T22:46:30.398Z,22.62
2022-08-04T22:48:57.666Z,22.67
2022-08-04T22:51:27.158Z,22.72
2022-08-04T22:53:54.394Z,22.71
2022-08-04T22:56:37.865Z,22.73
2022-08-04T22:59:05.987Z,22.52
2022-08-04T23:01:59.803Z,22.36
2022-08-04T23:04:23.708Z,22.65
2022-08-04T23:06:50.876Z,22.54
2022-08-04T23:09:17.766Z,22.47
2022-08-04T23:11:45.847Z,22.66
2022-08-04T23:14:17.361Z,22.84
2022-08-04T23:16:44.369Z,22.97
2022-08-04T23:19:15.175Z,22.64
2022-08-04T23:21:47.958Z,22.69
2022-08-04T23:24:29.706Z,22.76
2022-08-04T23:27:00.583Z,22.88
2022-08-04T23:29:28.031Z,22.96
2022-08-04T23:32:14.962Z,23.13
2022-08-04T23:34:47.380Z,23.20
2022-08-04T23:37:14.360Z,23.16
2022-08-04T23:40:28.118Z,23.32
2022-08-04T23:42:30.372Z,23.22
2022-08-04T23:44:57.353Z,23.05
2022-08-04T23:48:16.387Z,22.94
2022-08-04T23:50:12.145Z,22.68
2022-08-04T23:52:39.216Z,22.74
2022-08-04T23:55:10.318Z,22.79
2022-08-04T23:58:05.806Z,22.66
